Time;durP1;ratioP1;P1;durP2;ratioP2;P2;SDS_P1;SDS_P2;PMS_P1;PMS_P2;Temp;Humidity;BMP_temperature;BMP_pressure;BME280_temperature;BME280_humidity;BME280_pressure;Samples;Min_cycle;Max_cycle;Signal;HPM_P1;HPM_P2
2024/01/06 00:01:34;;;;;;;21.48;13.45;;;2.00;99.90;;;;;;5101302;28;20050;-67
2024/01/06 00:04:00;;;;;;;20.15;12.68;;;2.00;99.90;;;;;;5101684;28;20182;-66
2024/01/06 00:06:26;;;;;;;21.85;12.60;;;2.00;99.90;;;;;;5100080;28;20075;-67
2024/01/06 00:08:53;;;;;;;22.15;13.88;;;2.00;99.90;;;;;;5101042;28;20100;-66
2024/01/06 00:11:22;;;;;;;20.88;13.52;;;2.00;99.90;;;;;;5100624;28;20085;-66
2024/01/06 00:13:48;;;;;;;22.50;14.20;;;2.00;99.90;;;;;;5101781;28;20066;-67
2024/01/06 00:16:18;;;;;;;22.23;14.32;;;2.00;99.90;;;;;;5100499;28;20582;-68
2024/01/06 00:18:43;;;;;;;22.85;14.50;;;2.00;99.90;;;;;;5099929;28;20039;-65
2024/01/06 00:21:09;;;;;;;22.88;14.40;;;1.90;99.90;;;;;;5085552;28;20100;-67
2024/01/06 00:23:35;;;;;;;23.77;14.27;;;2.40;99.90;;;;;;5102555;28;20043;-66
2024/01/06 00:26:00;;;;;;;23.40;15.10;;;1.90;99.90;;;;;;5104314;28;20054;-67
2024/01/06 00:28:27;;;;;;;21.73;13.48;;;2.10;99.90;;;;;;5104841;28;20048;-67
2024/01/06 00:30:53;;;;;;;20.15;12.77;;;1.90;99.90;;;;;;5106742;28;20043;-67
2024/01/06 00:33:19;;;;;;;23.42;13.70;;;1.90;99.90;;;;;;5107307;28;20039;-66
2024/01/06 00:35:44;;;;;;;21.10;12.60;;;1.90;99.90;;;;;;5105287;28;20135;-66
2024/01/06 00:38:10;;;;;;;22.67;14.05;;;1.90;99.90;;;;;;5106605;28;20046;-66
2024/01/06 00:40:37;;;;;;;21.65;14.40;;;1.90;99.90;;;;;;5106467;28;20649;-67
2024/01/06 00:43:02;;;;;;;20.50;13.82;;;1.90;99.90;;;;;;5106522;28;20039;-67
2024/01/06 00:45:28;;;;;;;20.25;13.80;;;1.80;99.90;;;;;;5089234;28;20412;-66
2024/01/06 00:47:54;;;;;;;20.42;13.63;;;1.90;99.90;;;;;;5105983;28;20074;-66
2024/01/06 00:50:19;;;;;;;19.70;12.45;;;1.80;99.90;;;;;;5105916;28;20412;-67
2024/01/06 00:52:45;;;;;;;23.52;13.23;;;1.80;99.90;;;;;;5106382;28;20043;-67
2024/01/06 00:55:11;;;;;;;21.45;13.45;;;2.80;99.90;;;;;;5107526;28;20763;-66
2024/01/06 00:57:37;;;;;;;23.38;14.40;;;1.80;99.90;;;;;;5107422;28;20051;-66
2024/01/06 01:00:05;;;;;;;19.92;12.82;;;2.70;99.90;;;;;;5105361;28;20075;-66
2024/01/06 01:02:31;;;;;;;22.88;13.38;;;1.80;99.90;;;;;;5107500;28;20039;-67
2024/01/06 01:04:57;;;;;;;21.95;13.70;;;1.80;99.90;;;;;;5105340;28;20377;-67
2024/01/06 01:07:23;;;;;;;17.88;11.57;;;1.80;99.90;;;;;;5103065;28;20460;-66
2024/01/06 01:09:49;;;;;;;19.27;12.38;;;1.80;99.90;;;;;;5106285;28;20097;-66
2024/01/06 01:12:15;;;;;;;22.05;12.40;;;1.80;99.90;;;;;;5106956;28;20084;-66
2024/01/06 01:14:40;;;;;;;20.10;11.32;;;1.80;99.90;;;;;;5104966;28;20428;-66
2024/01/06 01:17:06;;;;;;;21.00;11.30;;;1.80;99.90;;;;;;5105450;28;20042;-66
2024/01/06 01:19:32;;;;;;;20.85;12.43;;;1.70;99.90;;;;;;5106701;28;20574;-65
2024/01/06 01:21:57;;;;;;;18.95;12.25;;;1.70;99.90;;;;;;5139206;27;20062;-66
2024/01/06 01:24:23;;;;;;;21.98;12.98;;;1.80;99.90;;;;;;5105280;28;20082;-66
2024/01/06 01:26:49;;;;;;;20.90;11.85;;;1.70;99.90;;;;;;5104962;28;20163;-66
2024/01/06 01:29:16;;;;;;;21.40;12.40;;;1.80;99.90;;;;;;5105000;28;20450;-66
2024/01/06 01:31:42;;;;;;;21.00;11.63;;;1.70;99.90;;;;;;5105012;28;20039;-66
2024/01/06 01:34:08;;;;;;;23.25;12.60;;;1.70;99.90;;;;;;5105265;28;20070;-66
2024/01/06 01:36:34;;;;;;;20.90;12.30;;;1.70;99.90;;;;;;5104212;28;20048;-66
2024/01/06 01:38:59;;;;;;;22.17;12.50;;;1.70;99.90;;;;;;5097897;28;20051;-66
2024/01/06 01:41:25;;;;;;;18.70;11.98;;;1.60;99.90;;;;;;5099908;28;20040;-66
2024/01/06 01:43:57;;;;;;;20.92;12.32;;;1.60;99.90;;;;;;5104859;28;20506;-67
2024/01/06 01:46:27;;;;;;;21.98;12.10;;;1.60;99.90;;;;;;5105244;28;20048;-66
2024/01/06 01:48:59;;;;;;;19.17;11.60;;;1.60;99.90;;;;;;5104821;28;20044;-66
2024/01/06 01:51:30;;;;;;;19.55;11.20;;;1.60;99.90;;;;;;5106073;28;20043;-66
2024/01/06 01:54:01;;;;;;;21.67;11.60;;;1.60;99.90;;;;;;5104425;28;20074;-66
2024/01/06 01:56:27;;;;;;;16.85;10.30;;;1.50;99.90;;;;;;5105438;28;20540;-66
2024/01/06 01:58:53;;;;;;;22.00;11.30;;;1.50;99.90;;;;;;5105998;28;20040;-66
2024/01/06 02:01:19;;;;;;;19.42;11.25;;;1.50;99.90;;;;;;5105815;28;20080;-67
2024/01/06 02:03:45;;;;;;;19.27;11.20;;;1.50;99.90;;;;;;5104850;28;20118;-66
2024/01/06 02:06:12;;;;;;;19.25;11.43;;;1.50;99.90;;;;;;5103883;28;20040;-66
2024/01/06 02:08:38;;;;;;;19.05;11.27;;;2.50;99.90;;;;;;5087573;28;20040;-67
2024/01/06 02:11:05;;;;;;;20.42;11.68;;;1.50;99.90;;;;;;5100765;28;20040;-66
2024/01/06 02:13:37;;;;;;;22.08;11.75;;;1.50;99.90;;;;;;5085144;28;20048;-66
2024/01/06 02:16:04;;;;;;;20.00;11.73;;;1.50;99.90;;;;;;5085479;28;20032;-66
2024/01/06 02:18:31;;;;;;;18.80;11.10;;;1.50;99.90;;;;;;5099222;28;20369;-66
2024/01/06 02:20:58;;;;;;;17.08;11.02;;;1.50;99.90;;;;;;5104145;28;20112;-66
2024/01/06 02:23:24;;;;;;;19.90;10.93;;;2.50;99.90;;;;;;5104071;28;20031;-66
2024/01/06 02:25:51;;;;;;;17.63;9.35;;;1.40;99.90;;;;;;5086336;28;20044;-67
2024/01/06 02:28:16;;;;;;;16.17;9.75;;;1.40;99.90;;;;;;5104502;28;20135;-66
2024/01/06 02:30:43;;;;;;;16.90;10.23;;;1.80;99.90;;;;;;5086713;28;20138;-66
2024/01/06 02:33:08;;;;;;;16.55;11.00;;;1.40;99.90;;;;;;5104507;28;20043;-66
2024/01/06 02:35:35;;;;;;;16.15;9.82;;;1.30;99.90;;;;;;5086661;28;20047;-66
2024/01/06 02:38:00;;;;;;;17.42;9.82;;;1.30;99.90;;;;;;5103310;28;20122;-67
2024/01/06 02:40:26;;;;;;;17.05;9.70;;;1.30;99.90;;;;;;5101767;28;20060;-67
2024/01/06 02:42:52;;;;;;;17.52;10.48;;;1.30;99.90;;;;;;5103480;28;20439;-66
2024/01/06 02:45:18;;;;;;;17.95;10.35;;;1.40;99.90;;;;;;5087478;28;20904;-66
2024/01/06 02:47:43;;;;;;;16.60;9.85;;;1.50;99.90;;;;;;5086951;28;20050;-66
2024/01/06 02:50:09;;;;;;;17.30;10.57;;;1.30;99.90;;;;;;5103076;28;20130;-67
2024/01/06 02:52:35;;;;;;;15.63;9.88;;;2.30;99.90;;;;;;5103106;28;20040;-66
2024/01/06 02:55:01;;;;;;;16.73;10.48;;;1.30;99.90;;;;;;5103634;28;20473;-66
2024/01/06 02:57:28;;;;;;;16.08;10.13;;;1.30;99.90;;;;;;5104076;28;20116;-67
2024/01/06 02:59:54;;;;;;;18.58;11.00;;;1.30;99.90;;;;;;5102768;28;20082;-67
2024/01/06 03:02:20;;;;;;;16.10;10.02;;;1.30;99.90;;;;;;5085963;28;20054;-67
2024/01/06 03:04:46;;;;;;;17.00;10.05;;;1.30;99.90;;;;;;5103599;28;20131;-67
2024/01/06 03:07:11;;;;;;;15.93;9.63;;;1.20;99.90;;;;;;5102444;28;20122;-67
2024/01/06 03:09:38;;;;;;;15.90;9.38;;;1.20;99.90;;;;;;5104725;28;20043;-67
2024/01/06 03:12:08;;;;;;;18.40;10.38;;;1.20;99.90;;;;;;5103892;28;20539;-67
2024/01/06 03:14:37;;;;;;;20.77;11.35;;;1.20;99.90;;;;;;5087308;28;20076;-67
2024/01/06 03:17:03;;;;;;;17.35;11.55;;;1.20;99.90;;;;;;5104839;28;20050;-67
2024/01/06 03:19:30;;;;;;;20.92;11.35;;;1.20;99.90;;;;;;5104837;28;20109;-67
2024/01/06 03:21:56;;;;;;;21.42;11.93;;;1.30;99.90;;;;;;5102843;28;20130;-67
2024/01/06 03:24:23;;;;;;;20.70;13.23;;;1.20;99.90;;;;;;5085889;28;20606;-67
2024/01/06 03:26:49;;;;;;;21.58;13.13;;;1.20;99.90;;;;;;5103612;28;20229;-66
2024/01/06 03:29:15;;;;;;;21.83;13.18;;;1.20;99.90;;;;;;5104543;28;20152;-66
2024/01/06 03:31:45;;;;;;;20.23;12.18;;;1.20;99.90;;;;;;5102228;28;20069;-66
2024/01/06 03:34:11;;;;;;;22.25;12.60;;;1.20;99.90;;;;;;5099227;28;20044;-67
2024/01/06 03:36:37;;;;;;;22.27;13.02;;;1.20;99.90;;;;;;5103306;28;20036;-66
2024/01/06 03:39:03;;;;;;;21.38;12.05;;;1.20;99.90;;;;;;5103083;28;20079;-66
2024/01/06 03:41:29;;;;;;;24.45;13.48;;;1.20;99.90;;;;;;5086644;28;20039;-67
2024/01/06 03:43:55;;;;;;;22.10;11.77;;;1.20;99.90;;;;;;5104222;28;20397;-66
2024/01/06 03:46:21;;;;;;;22.27;11.85;;;1.60;99.90;;;;;;5103227;28;20043;-67
2024/01/06 03:48:47;;;;;;;22.85;12.55;;;1.10;99.90;;;;;;5103274;28;20060;-66
2024/01/06 03:51:13;;;;;;;23.05;12.88;;;1.10;99.90;;;;;;5102924;28;20040;-66
2024/01/06 03:53:40;;;;;;;22.48;13.27;;;1.10;99.90;;;;;;5104154;28;20070;-67
2024/01/06 03:56:06;;;;;;;24.88;13.13;;;1.10;99.90;;;;;;5103161;28;20058;-67
2024/01/06 03:58:32;;;;;;;21.00;13.18;;;1.20;99.90;;;;;;5103060;28;20568;-67
2024/01/06 04:00:58;;;;;;;23.10;13.02;;;2.00;99.90;;;;;;5104393;28;20124;-67
2024/01/06 04:03:23;;;;;;;24.13;12.98;;;1.10;99.90;;;;;;5106761;28;20067;-66
2024/01/06 04:05:49;;;;;;;22.00;12.50;;;1.10;99.90;;;;;;5107164;28;20043;-67
2024/01/06 04:08:15;;;;;;;22.20;11.93;;;1.10;99.90;;;;;;5107295;28;20050;-67
2024/01/06 04:10:41;;;;;;;22.27;12.90;;;1.10;99.90;;;;;;5073133;28;20112;-67
2024/01/06 04:13:07;;;;;;;25.42;12.48;;;1.10;99.90;;;;;;5107135;28;20081;-67
2024/01/06 04:15:33;;;;;;;22.17;12.57;;;1.10;99.90;;;;;;5108312;28;20035;-67
2024/01/06 04:18:03;;;;;;;21.58;11.55;;;1.10;99.90;;;;;;5107733;28;20054;-67
2024/01/06 04:20:29;;;;;;;21.85;12.07;;;1.10;99.90;;;;;;5106485;28;20043;-64
2024/01/06 04:22:55;;;;;;;22.83;12.68;;;1.10;99.90;;;;;;5089166;28;20514;-63
2024/01/06 04:25:21;;;;;;;24.30;12.95;;;1.10;99.90;;;;;;5106878;28;20035;-64
2024/01/06 04:27:48;;;;;;;23.55;12.48;;;1.10;99.90;;;;;;5106183;28;20674;-64
2024/01/06 04:30:15;;;;;;;20.48;12.52;;;1.10;99.90;;;;;;5107604;28;20136;-65
2024/01/06 04:32:41;;;;;;;21.83;12.35;;;1.20;99.90;;;;;;5105864;28;20317;-65
2024/01/06 04:35:07;;;;;;;22.30;12.40;;;1.10;99.90;;;;;;5105855;28;20136;-65
2024/01/06 04:37:33;;;;;;;22.48;12.48;;;1.60;99.90;;;;;;5106092;28;20043;-64
2024/01/06 04:39:59;;;;;;;22.17;11.93;;;1.10;99.90;;;;;;5105728;28;20049;-65
2024/01/06 04:42:24;;;;;;;19.20;11.35;;;1.10;99.90;;;;;;5088920;28;20035;-65
2024/01/06 04:44:50;;;;;;;21.10;12.02;;;1.20;99.90;;;;;;5105616;28;20059;-65
2024/01/06 04:47:17;;;;;;;22.52;12.60;;;1.10;99.90;;;;;;5105535;28;20035;-65
2024/01/06 04:49:43;;;;;;;20.73;11.45;;;1.10;99.90;;;;;;5107727;28;20126;-64
2024/01/06 04:52:09;;;;;;;21.35;12.43;;;1.10;99.90;;;;;;5107224;28;20491;-65
2024/01/06 04:54:35;;;;;;;22.05;12.38;;;1.10;99.90;;;;;;5105339;28;20040;-65
2024/01/06 04:57:00;;;;;;;20.75;11.50;;;1.10;99.90;;;;;;5105513;28;20055;-65
2024/01/06 04:59:26;;;;;;;22.90;12.68;;;1.20;99.90;;;;;;5105914;28;20046;-64
2024/01/06 05:01:53;;;;;;;25.35;13.80;;;1.50;99.90;;;;;;5104992;28;20043;-65
2024/01/06 05:04:19;;;;;;;19.80;11.07;;;1.10;99.90;;;;;;5105367;28;20031;-64
2024/01/06 05:06:45;;;;;;;22.02;11.95;;;1.10;99.90;;;;;;5106440;28;20445;-65
2024/01/06 05:09:11;;;;;;;19.05;10.75;;;1.10;99.90;;;;;;5088223;28;20444;-64
2024/01/06 05:11:36;;;;;;;22.80;11.63;;;1.10;99.90;;;;;;5104035;28;20452;-64
2024/01/06 05:14:02;;;;;;;22.40;11.68;;;1.10;99.90;;;;;;5106361;28;20049;-65
2024/01/06 05:16:28;;;;;;;19.20;12.00;;;1.20;99.90;;;;;;5106434;28;20743;-64
2024/01/06 05:18:54;;;;;;;20.88;11.18;;;1.20;99.90;;;;;;5105065;28;20086;-63
2024/01/06 05:21:20;;;;;;;22.88;10.20;;;1.20;99.90;;;;;;5106967;28;20690;-64
2024/01/06 05:23:46;;;;;;;21.00;10.93;;;1.20;99.90;;;;;;5106510;28;20043;-64
2024/01/06 05:26:13;;;;;;;19.42;10.07;;;1.20;99.90;;;;;;5104642;28;20053;-64
2024/01/06 05:28:40;;;;;;;16.90;10.02;;;1.20;99.90;;;;;;5106853;28;20433;-64
2024/01/06 05:31:06;;;;;;;15.70;9.73;;;2.10;99.90;;;;;;5105251;28;20062;-64
2024/01/06 05:33:31;;;;;;;16.42;10.20;;;1.20;99.90;;;;;;5105250;28;20048;-63
2024/01/06 05:35:57;;;;;;;17.17;9.98;;;1.20;99.90;;;;;;5106197;28;20495;-64
2024/01/06 05:38:23;;;;;;;17.20;10.35;;;1.20;99.90;;;;;;5087981;28;20052;-65
2024/01/06 05:40:49;;;;;;;21.35;10.70;;;1.20;99.90;;;;;;5106541;28;20113;-65
2024/01/06 05:43:14;;;;;;;17.45;10.00;;;1.20;99.90;;;;;;5104839;28;20039;-64
2024/01/06 05:45:41;;;;;;;17.45;10.60;;;1.20;99.90;;;;;;5104369;28;20649;-64
2024/01/06 05:48:10;;;;;;;17.83;9.77;;;1.20;99.90;;;;;;5087755;28;20055;-64
2024/01/06 05:50:40;;;;;;;19.40;11.07;;;1.20;99.90;;;;;;5104575;28;20054;-64
2024/01/06 05:53:06;;;;;;;20.77;10.75;;;1.40;99.90;;;;;;5103426;28;20080;-64
2024/01/06 05:55:32;;;;;;;19.58;11.23;;;1.50;99.90;;;;;;5105058;28;20054;-64
2024/01/06 05:57:58;;;;;;;18.30;10.80;;;1.20;99.90;;;;;;5105790;28;20610;-64
2024/01/06 06:00:24;;;;;;;18.30;10.90;;;1.20;99.90;;;;;;5104238;28;20035;-64
2024/01/06 06:02:49;;;;;;;17.45;10.25;;;1.20;99.90;;;;;;5105447;28;20169;-64
2024/01/06 06:05:15;;;;;;;20.65;10.68;;;1.20;99.90;;;;;;5106145;28;20096;-64
2024/01/06 06:07:42;;;;;;;19.90;11.05;;;1.20;99.90;;;;;;5105543;28;20120;-64
2024/01/06 06:10:10;;;;;;;18.42;10.90;;;1.20;99.90;;;;;;5087104;28;20497;-64
2024/01/06 06:12:36;;;;;;;19.23;10.68;;;1.20;99.90;;;;;;5105016;28;20055;-64
2024/01/06 06:15:03;;;;;;;20.92;11.32;;;1.20;99.90;;;;;;5087085;28;20044;-64
2024/01/06 06:17:30;;;;;;;19.00;10.73;;;1.20;99.90;;;;;;5104339;28;20118;-64
2024/01/06 06:19:57;;;;;;;17.58;10.63;;;1.20;99.90;;;;;;5103763;28;20051;-64
2024/01/06 06:22:23;;;;;;;18.92;10.98;;;1.20;99.90;;;;;;5104607;28;20028;-64
2024/01/06 06:24:48;;;;;;;21.48;10.73;;;1.20;99.90;;;;;;5103937;28;20039;-64
2024/01/06 06:27:14;;;;;;;20.98;11.35;;;2.30;99.90;;;;;;5085925;28;20108;-64
2024/01/06 06:29:40;;;;;;;20.30;11.07;;;1.20;99.90;;;;;;5105630;28;20305;-64
2024/01/06 06:32:06;;;;;;;18.17;9.45;;;1.30;99.90;;;;;;5130969;27;20039;-64
2024/01/06 06:34:31;;;;;;;19.73;10.73;;;1.20;99.90;;;;;;5137737;27;20100;-64
2024/01/06 06:36:58;;;;;;;22.75;11.07;;;1.40;99.90;;;;;;5104227;28;20449;-64
2024/01/06 06:39:24;;;;;;;20.05;11.10;;;1.30;99.90;;;;;;5086672;28;20039;-63
2024/01/06 06:41:50;;;;;;;20.92;11.45;;;1.30;99.90;;;;;;5100304;28;20713;-65
2024/01/06 06:44:15;;;;;;;18.08;10.38;;;1.30;99.90;;;;;;5086828;28;20040;-64
2024/01/06 06:46:41;;;;;;;17.48;10.55;;;1.30;99.90;;;;;;5100179;28;20046;-64
2024/01/06 06:49:07;;;;;;;18.83;11.05;;;1.30;99.90;;;;;;5080491;28;20039;-64
2024/01/06 06:51:33;;;;;;;20.45;11.55;;;1.30;99.90;;;;;;5104531;28;20380;-64
2024/01/06 06:53:58;;;;;;;17.80;10.13;;;1.30;99.90;;;;;;5086790;28;20055;-65
2024/01/06 06:56:24;;;;;;;19.33;11.05;;;1.80;99.90;;;;;;5103430;28;20138;-64
2024/01/06 06:58:54;;;;;;;21.67;11.77;;;1.30;99.90;;;;;;5103111;28;20779;-64
2024/01/06 07:01:20;;;;;;;22.85;11.45;;;1.30;99.90;;;;;;5097471;28;20048;-63
2024/01/06 07:03:48;;;;;;;19.63;11.32;;;1.30;99.90;;;;;;5094294;28;20043;-64
2024/01/06 07:06:15;;;;;;;20.15;11.35;;;1.30;99.90;;;;;;5070734;28;20856;-63
2024/01/06 07:08:41;;;;;;;22.88;12.10;;;1.30;99.90;;;;;;5091297;28;20151;-63
2024/01/06 07:11:08;;;;;;;23.45;12.45;;;1.30;99.90;;;;;;5083906;28;20077;-63
2024/01/06 07:13:34;;;;;;;21.48;11.77;;;1.30;99.90;;;;;;5101420;28;20396;-63
2024/01/06 07:15:59;;;;;;;19.42;12.30;;;1.30;99.90;;;;;;5100825;28;20044;-64
2024/01/06 07:18:26;;;;;;;25.95;12.93;;;1.30;99.90;;;;;;5101900;28;20496;-64
2024/01/06 07:20:51;;;;;;;19.88;11.68;;;2.00;99.90;;;;;;5101425;28;20078;-64
2024/01/06 07:23:17;;;;;;;23.77;12.82;;;2.00;99.90;;;;;;5101747;28;20468;-64
2024/01/06 07:25:43;;;;;;;20.73;11.85;;;1.30;99.90;;;;;;5102057;28;20043;-64
2024/01/06 07:28:09;;;;;;;20.50;12.48;;;1.30;99.90;;;;;;5101794;28;20104;-64
2024/01/06 07:30:34;;;;;;;20.80;13.02;;;1.30;99.90;;;;;;5101349;28;20043;-64
2024/01/06 07:33:00;;;;;;;21.30;11.52;;;1.40;99.90;;;;;;5082958;28;20112;-64
2024/01/06 07:35:26;;;;;;;23.25;13.65;;;1.30;99.90;;;;;;5102522;28;20040;-64
2024/01/06 07:37:52;;;;;;;26.10;13.65;;;1.40;99.90;;;;;;5102839;28;20051;-68
2024/01/06 07:40:18;;;;;;;21.83;12.13;;;1.30;99.90;;;;;;5101976;28;20048;-64
2024/01/06 07:42:44;;;;;;;23.52;12.63;;;1.30;99.90;;;;;;5102488;28;20605;-64
2024/01/06 07:45:10;;;;;;;20.20;12.35;;;1.30;99.90;;;;;;5103394;28;20046;-64
2024/01/06 07:47:36;;;;;;;23.27;12.30;;;1.70;99.90;;;;;;5101026;28;20080;-64
2024/01/06 07:50:04;;;;;;;24.70;13.07;;;1.30;99.90;;;;;;5100121;28;20123;-63
2024/01/06 07:52:30;;;;;;;24.17;13.30;;;1.40;99.90;;;;;;5103540;28;20043;-64
2024/01/06 07:54:56;;;;;;;25.17;13.35;;;1.40;99.90;;;;;;5102513;28;20709;-65
2024/01/06 07:57:21;;;;;;;20.42;12.43;;;1.30;99.90;;;;;;5102861;28;20116;-63
2024/01/06 07:59:47;;;;;;;23.05;13.52;;;1.80;99.90;;;;;;5102680;28;20043;-63
2024/01/06 08:02:13;;;;;;;20.92;13.25;;;1.40;99.90;;;;;;5101986;28;20036;-63
2024/01/06 08:04:38;;;;;;;20.63;12.75;;;1.80;99.90;;;;;;5101395;28;20472;-63
2024/01/06 08:07:04;;;;;;;24.58;14.02;;;1.40;99.90;;;;;;5099960;28;20105;-64
2024/01/06 08:09:30;;;;;;;27.15;13.85;;;2.40;99.90;;;;;;5095060;28;20047;-64
2024/01/06 08:11:56;;;;;;;26.33;14.40;;;1.40;99.90;;;;;;5097201;28;20071;-64
2024/01/06 08:14:22;;;;;;;23.88;13.63;;;1.40;99.90;;;;;;5098270;28;20707;-64
2024/01/06 08:16:47;;;;;;;25.52;15.23;;;1.40;99.90;;;;;;5101058;28;20051;-63
2024/01/06 08:19:13;;;;;;;25.05;14.88;;;1.40;99.90;;;;;;5099383;28;20725;-64
2024/01/06 08:21:39;;;;;;;27.75;16.45;;;1.40;99.90;;;;;;5096900;28;20127;-64
2024/01/06 08:24:05;;;;;;;26.10;15.23;;;1.40;99.90;;;;;;5071590;28;20058;-66
2024/01/06 08:26:31;;;;;;;25.60;15.77;;;1.40;99.90;;;;;;5098226;28;20043;-64
2024/01/06 08:28:57;;;;;;;28.88;16.25;;;1.40;99.90;;;;;;5098643;28;20058;-64
2024/01/06 08:31:23;;;;;;;26.02;15.68;;;1.40;99.90;;;;;;5084338;28;20048;-64
2024/01/06 08:33:48;;;;;;;30.92;16.65;;;1.40;99.90;;;;;;5090028;28;20063;-64
2024/01/06 08:36:14;;;;;;;25.63;15.27;;;1.40;99.90;;;;;;5092694;28;20039;-65
2024/01/06 08:38:40;;;;;;;28.67;15.88;;;1.40;99.90;;;;;;5087304;28;20043;-64
2024/01/06 08:41:05;;;;;;;28.98;17.60;;;1.40;99.90;;;;;;5090476;28;20256;-63
2024/01/06 08:43:31;;;;;;;29.23;16.05;;;1.40;99.90;;;;;;5094426;28;20077;-63
2024/01/06 08:45:57;;;;;;;25.00;15.15;;;1.40;99.90;;;;;;5095003;28;20059;-64
2024/01/06 08:48:23;;;;;;;26.67;15.50;;;1.50;99.90;;;;;;5093990;28;20381;-64
2024/01/06 08:50:48;;;;;;;30.23;16.63;;;1.40;99.90;;;;;;5090013;28;20104;-64
2024/01/06 08:53:15;;;;;;;31.17;16.23;;;2.10;99.90;;;;;;5084408;28;20036;-64
2024/01/06 08:55:41;;;;;;;30.90;16.73;;;1.50;99.90;;;;;;5088423;28;20688;-64
2024/01/06 08:58:06;;;;;;;36.70;15.98;;;1.50;99.90;;;;;;5070987;28;20046;-63
2024/01/06 09:00:32;;;;;;;28.00;16.15;;;1.50;99.90;;;;;;5082022;28;20045;-64
2024/01/06 09:02:58;;;;;;;27.33;16.65;;;1.50;99.90;;;;;;5081944;28;20862;-65
2024/01/06 09:05:24;;;;;;;29.40;16.20;;;1.40;99.90;;;;;;5085455;28;20252;-63
2024/01/06 09:07:50;;;;;;;26.90;15.30;;;1.50;99.90;;;;;;5085976;28;20081;-64
2024/01/06 09:10:19;;;;;;;27.00;15.32;;;1.50;99.90;;;;;;5088982;28;20050;-65
2024/01/06 09:12:45;;;;;;;29.60;16.58;;;1.50;99.90;;;;;;5086727;28;20059;-63
2024/01/06 09:15:11;;;;;;;25.02;15.52;;;1.50;99.90;;;;;;5088847;28;20112;-64
2024/01/06 09:17:36;;;;;;;23.63;13.75;;;1.50;99.90;;;;;;5091508;28;20048;-64
2024/01/06 09:20:03;;;;;;;26.25;15.52;;;1.50;99.90;;;;;;5083522;28;20048;-64
2024/01/06 09:22:29;;;;;;;28.30;16.42;;;1.50;99.90;;;;;;5079379;28;20040;-64
2024/01/06 09:24:54;;;;;;;26.75;15.20;;;1.50;99.90;;;;;;5101626;28;20034;-64
2024/01/06 09:27:20;;;;;;;26.48;14.70;;;1.50;99.90;;;;;;5101388;28;20044;-64
2024/01/06 09:29:46;;;;;;;25.83;14.52;;;1.50;99.90;;;;;;5103657;28;20425;-64
2024/01/06 09:32:13;;;;;;;23.77;13.65;;;1.60;99.90;;;;;;5081515;28;20058;-64
2024/01/06 09:34:39;;;;;;;24.10;13.55;;;1.60;99.90;;;;;;5079580;28;20048;-64
2024/01/06 09:37:05;;;;;;;23.60;14.20;;;1.60;99.90;;;;;;5082275;28;20053;-64
2024/01/06 09:39:31;;;;;;;20.40;12.60;;;1.60;99.90;;;;;;5081544;28;20040;-64
2024/01/06 09:41:57;;;;;;;22.33;12.85;;;1.60;99.90;;;;;;5114019;27;20048;-64
2024/01/06 09:44:24;;;;;;;22.35;12.38;;;1.60;99.90;;;;;;5085384;28;20031;-64
2024/01/06 09:46:50;;;;;;;20.70;13.10;;;1.60;99.90;;;;;;5086904;28;20839;-64
2024/01/06 09:49:20;;;;;;;23.25;13.32;;;1.60;99.90;;;;;;5086395;28;20044;-64
2024/01/06 09:51:51;;;;;;;20.83;11.57;;;1.60;99.90;;;;;;5088823;28;20059;-64
2024/01/06 09:54:26;;;;;;;21.27;12.27;;;1.60;99.90;;;;;;5091098;28;20048;-64
2024/01/06 09:56:52;;;;;;;22.35;12.75;;;1.70;99.90;;;;;;5087270;28;20047;-64
2024/01/06 09:59:19;;;;;;;19.10;12.13;;;1.60;99.90;;;;;;5088963;27;20121;-64
2024/01/06 10:01:45;;;;;;;23.13;12.80;;;2.80;99.90;;;;;;5088679;28;20127;-64
2024/01/06 10:04:11;;;;;;;22.83;13.35;;;2.00;99.90;;;;;;5085987;28;20085;-65
2024/01/06 10:06:36;;;;;;;19.08;11.48;;;1.60;99.90;;;;;;5086635;28;20761;-65
2024/01/06 10:09:04;;;;;;;19.20;11.98;;;1.60;99.90;;;;;;5088700;28;20052;-64
2024/01/06 10:11:30;;;;;;;21.98;12.25;;;1.60;99.90;;;;;;5091545;28;20047;-65
2024/01/06 10:13:56;;;;;;;22.40;12.50;;;1.60;99.90;;;;;;5086976;27;20826;-64
2024/01/06 10:16:22;;;;;;;19.63;11.90;;;1.70;99.90;;;;;;5115364;27;20075;-64
2024/01/06 10:18:48;;;;;;;20.52;11.63;;;1.60;99.90;;;;;;5087083;28;20150;-64
2024/01/06 10:21:17;;;;;;;21.85;11.65;;;1.90;99.90;;;;;;5086162;28;20515;-64
2024/01/06 10:23:43;;;;;;;21.73;12.00;;;1.60;99.90;;;;;;5084823;28;20063;-63
2024/01/06 10:26:13;;;;;;;24.63;13.35;;;1.70;99.90;;;;;;5085260;28;20065;-64
2024/01/06 10:28:39;;;;;;;29.10;14.57;;;1.70;99.90;;;;;;5084855;28;20040;-67
2024/01/06 10:31:08;;;;;;;24.17;13.73;;;1.70;99.90;;;;;;5089681;28;20511;-63
2024/01/06 10:33:34;;;;;;;20.63;12.32;;;1.70;99.90;;;;;;5089293;28;20040;-64
2024/01/06 10:36:01;;;;;;;22.55;12.40;;;1.70;99.90;;;;;;5088348;28;20040;-64
2024/01/06 10:38:27;;;;;;;22.70;12.68;;;1.70;99.90;;;;;;5073973;28;20892;-64
2024/01/06 10:41:01;;;;;;;25.60;14.57;;;1.70;99.90;;;;;;5092411;28;20128;-64
2024/01/06 10:43:28;;;;;;;21.67;12.00;;;1.80;99.90;;;;;;5090790;27;20044;-64
2024/01/06 10:45:57;;;;;;;23.00;13.18;;;1.70;99.90;;;;;;5088357;28;20040;-64
2024/01/06 10:48:29;;;;;;;20.40;12.65;;;1.70;99.90;;;;;;5082437;28;20119;-66
2024/01/06 10:50:55;;;;;;;24.92;14.27;;;1.80;99.90;;;;;;5068323;28;20059;-64
2024/01/06 10:53:22;;;;;;;23.52;12.32;;;1.90;99.90;;;;;;5079052;28;20044;-64
2024/01/06 10:55:50;;;;;;;23.63;14.48;;;2.30;99.90;;;;;;5086357;28;20514;-65
2024/01/06 10:58:17;;;;;;;25.70;14.40;;;1.90;99.90;;;;;;5086338;28;20054;-64
2024/01/06 11:00:43;;;;;;;21.10;13.40;;;1.90;99.90;;;;;;5083341;28;20044;-64
2024/01/06 11:03:09;;;;;;;21.88;12.63;;;3.00;99.90;;;;;;5068516;28;20523;-64
2024/01/06 11:05:36;;;;;;;19.13;11.55;;;2.20;99.90;;;;;;5073667;28;20060;-64
2024/01/06 11:08:04;;;;;;;19.77;12.30;;;2.00;99.90;;;;;;5082871;28;20574;-64
2024/01/06 11:10:31;;;;;;;23.80;13.23;;;1.90;99.90;;;;;;5077642;28;20113;-64
2024/01/06 11:13:13;;;;;;;20.95;12.52;;;2.00;99.90;;;;;;5079925;28;20054;-64
2024/01/06 11:15:49;;;;;;;21.10;13.18;;;1.90;99.90;;;;;;5084014;28;20059;-65
2024/01/06 11:18:37;;;;;;;19.40;11.48;;;1.90;99.90;;;;;;5074847;28;20067;-64
2024/01/06 11:21:29;;;;;;;19.25;11.55;;;2.00;99.90;;;;;;5081872;28;20068;-65
2024/01/06 11:24:08;;;;;;;;;;;2.00;99.90;;;;;;5078569;28;20054;-64
2024/01/06 11:26:34;;;;;;;17.20;10.38;;;2.00;99.90;;;;;;5081611;28;19973;-66
2024/01/06 11:29:00;;;;;;;17.73;11.27;;;2.00;99.90;;;;;;5077744;28;20048;-65
2024/01/06 11:31:33;;;;;;;20.13;10.90;;;2.00;99.90;;;;;;5076201;28;20793;-65
2024/01/06 11:34:16;;;;;;;17.50;10.82;;;2.00;99.90;;;;;;5072484;28;20193;-65
2024/01/06 11:36:44;;;;;;;18.20;10.65;;;2.00;99.90;;;;;;5078738;28;20075;-64
2024/01/06 11:39:38;;;;;;;16.67;10.77;;;2.00;99.90;;;;;;5086293;28;20149;-64
2024/01/06 11:42:04;;;;;;;19.20;11.57;;;2.00;99.90;;;;;;5081307;28;20081;-64
2024/01/06 11:44:34;;;;;;;18.00;11.75;;;2.00;99.90;;;;;;5082519;28;20100;-65
2024/01/06 11:47:00;;;;;;;17.67;11.25;;;2.00;99.90;;;;;;5075716;28;20054;-64
2024/01/06 11:49:29;;;;;;;20.83;12.52;;;2.00;99.90;;;;;;5078371;28;20052;-64
2024/01/06 11:51:56;;;;;;;19.27;12.20;;;1.90;99.90;;;;;;5060668;28;20044;-64
2024/01/06 11:54:22;;;;;;;16.92;10.57;;;2.00;99.90;;;;;;5076871;28;20800;-65
2024/01/06 11:56:48;;;;;;;17.95;10.45;;;1.90;99.90;;;;;;5067352;28;20078;-64
2024/01/06 11:59:14;;;;;;;13.50;8.50;;;2.10;99.90;;;;;;5081882;28;20491;-65
2024/01/06 12:01:40;;;;;;;15.68;9.60;;;1.90;99.90;;;;;;5106427;27;20040;-64
2024/01/06 12:04:06;;;;;;;16.85;10.25;;;1.90;99.90;;;;;;5109307;27;20725;-64
2024/01/06 12:06:33;;;;;;;15.45;9.80;;;2.40;99.90;;;;;;5080259;28;20040;-64
2024/01/06 12:09:07;;;;;;;15.85;9.55;;;1.90;99.90;;;;;;5098937;28;20043;-64
2024/01/06 12:11:33;;;;;;;14.50;8.55;;;1.90;99.90;;;;;;5077244;28;20497;-65
2024/01/06 12:13:58;;;;;;;13.98;8.35;;;1.90;99.90;;;;;;5081831;28;20055;-65
2024/01/06 12:16:28;;;;;;;12.30;8.00;;;1.90;99.90;;;;;;5084814;28;20055;-65
2024/01/06 12:18:55;;;;;;;12.77;7.30;;;1.90;99.90;;;;;;5084176;27;20048;-66
2024/01/06 12:21:24;;;;;;;12.45;7.07;;;1.90;99.90;;;;;;5085975;28;20047;-65
2024/01/06 12:23:49;;;;;;;14.05;7.63;;;1.80;99.90;;;;;;5091688;28;20048;-65
2024/01/06 12:26:17;;;;;;;14.85;7.25;;;1.80;99.90;;;;;;5093300;28;20048;-65
2024/01/06 12:28:48;;;;;;;13.80;7.50;;;2.90;99.90;;;;;;5072038;28;20105;-65
2024/01/06 12:31:15;;;;;;;13.90;7.53;;;1.80;99.90;;;;;;5093736;28;20050;-64
2024/01/06 12:33:41;;;;;;;12.07;7.45;;;1.80;99.90;;;;;;5116136;27;20418;-65
2024/01/06 12:36:08;;;;;;;13.55;8.82;;;1.80;99.90;;;;;;5092852;28;20048;-65